Minneapolis-St Paul International/Wold-Chamberlain Airport
KMSP : rendu visible

Aérodrome :











RETROUVEZ-NOUS SUR...

 
LOGIN :

S'inscrire | Disclaimer

   EN    FR    IT 

 









Légende :    VFR   VFR Marginal   IFR   IFR Intensif   IFR Très Intensif
Visi : 
Plafond : 
>= 8 km
>= 3000ft
5 à 8 km
1000 à 3000 ft
1500m à 5 km
500 à 1000 ft
800 à 1500m
200 à 500 ft
< 800m
< 200 ft
Symboles :   Orages  Brouillard  Fortes neiges  Fortes précipitations  Vent > 20 kt







- Altitude de l'aérodrome : 841 ft
- Code IATA : MSP


KMSP - Minneapolis-St Paul International/Wold-Chamberlain

DERNIER METAR :
  • 210253Z 14010KT 10SM FEW030 SCT250 25/21 A2993 RMK AO2 SLP129 T02500206 56005

METARs EXPIRÉS :
  • 210153Z 14012KT 10SM FEW030 SCT250 26/21 A2993 RMK AO2 SLP130 T02610211
  • 210053Z 14009KT 10SM FEW250 27/22 A2994 RMK AO2 SLP132 T02670217

TAF KMSP
Valide du 21 à 00h jusqu'au 22 à 06h UTC


202325Z 2100/2206 14010G19KT P6SM SCT030 BKN250
FM210600 16008G18KT P6SM BKN040
FM211100 17012G22KT 6SM -RA BR SCT015 OVC025
TEMPO 2111/2115 3SM TSRA BR BKN015CB
FM211500 18015G22KT P6SM SCT004 OVC009
TEMPO 2118/2122 5SM -RA SCT009 BKN025
FM212300 22010G18KT P6SM SCT180
Pas de NOTAMs connus pour ce terrain.



MET'MAP, la Météo Aéronautique d'un coup d'oeil ! - Copyright ORBIFLY Décembre 2007 - Disclaimer

ORBIFLY MET'MAP TEAM :

Programmation & Développement : Alexandra Zaïnal
Conception & Développement : Baudouin d'Aumeries
Co-Programmation & Développement : Marc-Olivier Méhu
Soutien technique & logistique : Manuel Goepfert

Contact : metmap@orbifly.com




SOURCES & CREDITS :

   NOAA       Earth
Advisory